createdAt,value
2018-08-17T00:04:10.583Z,16.60
2018-08-17T00:09:48.751Z,16.60
2018-08-17T00:12:41.420Z,16.60
2018-08-17T00:21:11.958Z,16.50
2018-08-17T00:29:46.118Z,16.40
2018-08-17T00:35:28.351Z,16.20
2018-08-17T00:38:13.829Z,16.20
2018-08-17T00:40:58.535Z,16.10
2018-08-17T00:43:42.943Z,15.90
2018-08-17T01:06:57.079Z,16.00
2018-08-17T01:18:21.942Z,15.90
2018-08-17T01:21:06.323Z,15.80
2018-08-17T01:23:53.706Z,15.70
2018-08-17T01:26:42.872Z,15.70
2018-08-17T01:37:53.196Z,15.80
2018-08-17T01:43:32.124Z,15.90
2018-08-17T01:49:22.769Z,15.90
2018-08-17T01:55:11.056Z,15.80
2018-08-17T02:06:38.745Z,15.90
2018-08-17T02:12:22.861Z,15.90
2018-08-17T02:15:05.585Z,15.90
2018-08-17T02:32:14.303Z,15.80
2018-08-17T02:34:52.093Z,15.80
2018-08-17T02:40:24.189Z,15.80
2018-08-17T02:45:59.924Z,15.80
2018-08-17T02:57:40.734Z,15.60
2018-08-17T03:09:04.170Z,15.60
2018-08-17T03:49:03.643Z,15.50
2018-08-17T03:54:33.594Z,15.50
2018-08-17T03:57:25.921Z,15.60
2018-08-17T04:03:01.410Z,15.60
2018-08-17T04:20:20.149Z,15.70
2018-08-17T04:35:28.042Z,15.90
2018-08-17T05:02:01.636Z,16.50
2018-08-17T05:16:32.155Z,16.60
2018-08-17T05:19:24.748Z,16.70
2018-08-17T05:22:15.203Z,16.70
2018-08-17T05:28:58.222Z,16.90
2018-08-17T05:37:39.815Z,17.20
2018-08-17T05:47:01.073Z,17.40
2018-08-17T05:49:48.331Z,17.60
2018-08-17T06:01:56.508Z,18.10
2018-08-17T06:04:44.916Z,18.30
2018-08-17T06:11:17.441Z,18.60
2018-08-17T06:13:55.715Z,18.80
2018-08-17T06:20:11.563Z,19.10
2018-08-17T06:23:02.043Z,19.40
2018-08-17T07:21:09.170Z,22.20
2018-08-17T12:58:41.586Z,35.30
2018-08-17T16:19:23.856Z,35.40
2018-08-17T16:58:25.709Z,34.50
2018-08-17T17:00:55.917Z,34.60
2018-08-17T17:03:26.049Z,34.80
2018-08-17T17:06:03.053Z,34.20
2018-08-17T17:08:33.497Z,34.00
2018-08-17T17:11:03.677Z,33.50
2018-08-17T17:13:38.268Z,33.20
2018-08-17T17:16:09.416Z,32.50
2018-08-17T17:18:39.512Z,31.90
2018-08-17T17:21:09.686Z,31.60
2018-08-17T17:23:52.592Z,31.30
2018-08-17T17:26:22.742Z,31.10
2018-08-17T17:28:53.153Z,30.90
2018-08-17T17:31:23.404Z,30.50
2018-08-17T17:33:53.590Z,30.00
2018-08-17T17:36:23.760Z,29.40
2018-08-17T17:38:53.961Z,28.90
2018-08-17T17:41:24.100Z,28.70
2018-08-17T17:43:54.249Z,28.70
2018-08-17T17:46:24.313Z,28.70
2018-08-17T17:48:54.509Z,28.50
2018-08-17T17:51:25.070Z,28.30
2018-08-17T17:53:55.264Z,27.90
2018-08-17T17:56:25.408Z,27.30
2018-08-17T17:59:03.737Z,26.80
2018-08-17T18:01:33.962Z,26.40
2018-08-17T18:04:04.198Z,25.90
2018-08-17T18:06:34.378Z,25.60
2018-08-17T18:09:05.348Z,25.30
2018-08-17T18:11:35.526Z,25.00
2018-08-17T18:14:05.908Z,24.70
2018-08-17T18:16:36.243Z,24.50
2018-08-17T18:19:06.384Z,24.30
2018-08-17T18:21:36.533Z,24.10
2018-08-17T18:24:10.602Z,23.90
2018-08-17T18:26:46.109Z,23.80
2018-08-17T18:29:16.484Z,23.60
2018-08-17T18:31:46.771Z,23.40
2018-08-17T18:34:16.987Z,23.20
2018-08-17T18:36:47.317Z,23.00
2018-08-17T18:39:17.438Z,22.90
2018-08-17T18:41:47.523Z,22.80
2018-08-17T18:44:17.707Z,22.70
2018-08-17T18:46:47.865Z,22.60
2018-08-17T18:49:18.204Z,22.50
2018-08-17T18:51:48.604Z,22.40
2018-08-17T18:54:19.967Z,22.30
2018-08-17T18:56:50.141Z,22.20
2018-08-17T18:59:20.293Z,22.00
2018-08-17T19:01:50.361Z,22.00
2018-08-17T19:04:20.499Z,21.90
2018-08-17T19:06:50.649Z,21.80
2018-08-17T19:09:20.858Z,21.70
2018-08-17T19:11:51.002Z,21.60
2018-08-17T19:14:21.164Z,21.60
2018-08-17T19:16:51.369Z,21.50
2018-08-17T19:19:21.553Z,21.40
2018-08-17T19:21:51.704Z,21.30
2018-08-17T19:24:21.917Z,21.20
2018-08-17T19:26:52.043Z,21.10
2018-08-17T19:29:22.240Z,21.00
2018-08-17T19:31:56.446Z,21.00
2018-08-17T19:34:29.737Z,20.90
2018-08-17T19:36:59.986Z,20.80
2018-08-17T19:39:34.655Z,20.80
2018-08-17T19:42:04.884Z,20.70
2018-08-17T19:44:35.024Z,20.60
2018-08-17T19:47:05.385Z,20.50
2018-08-17T19:49:35.529Z,20.40
2018-08-17T19:52:05.809Z,20.30
2018-08-17T19:54:35.969Z,20.20
2018-08-17T19:57:06.325Z,20.10
2018-08-17T19:59:36.530Z,20.00
2018-08-17T20:02:06.789Z,20.00
2018-08-17T20:04:36.945Z,19.90
2018-08-17T20:07:07.438Z,19.90
2018-08-17T20:09:37.865Z,19.90
2018-08-17T20:12:08.053Z,19.80
2018-08-17T20:14:38.236Z,19.80
2018-08-17T20:17:08.526Z,19.80
2018-08-17T20:19:43.814Z,19.80
2018-08-17T20:22:16.576Z,19.70
2018-08-17T20:24:47.122Z,19.60
2018-08-17T20:27:17.897Z,19.50
2018-08-17T20:29:48.256Z,19.40
2018-08-17T20:32:18.508Z,19.40
2018-08-17T20:34:49.850Z,19.30
2018-08-17T20:37:19.992Z,19.30
2018-08-17T20:39:50.165Z,19.40
2018-08-17T20:42:20.330Z,19.40
2018-08-17T20:44:50.412Z,19.40
2018-08-17T20:47:20.570Z,19.40
2018-08-17T20:49:50.773Z,19.30
2018-08-17T20:52:20.904Z,19.10
2018-08-17T20:54:51.104Z,19.10
2018-08-17T20:57:21.250Z,19.10
2018-08-17T20:59:51.444Z,19.10
2018-08-17T21:02:21.565Z,19.10
2018-08-17T21:04:51.740Z,19.00
2018-08-17T21:07:21.864Z,18.90
2018-08-17T21:09:52.190Z,18.70
2018-08-17T21:12:22.325Z,18.60
2018-08-17T21:14:52.485Z,18.50
2018-08-17T21:17:22.598Z,18.40
2018-08-17T21:19:52.772Z,18.50
2018-08-17T21:22:22.940Z,18.50
2018-08-17T21:24:53.117Z,18.50
2018-08-17T21:27:23.248Z,18.40
2018-08-17T21:29:53.369Z,18.30
2018-08-17T21:32:24.214Z,18.30
2018-08-17T21:34:54.709Z,18.20
2018-08-17T21:37:26.437Z,18.30
2018-08-17T21:39:56.697Z,18.30
2018-08-17T21:42:26.849Z,18.30
2018-08-17T21:44:57.009Z,18.30
2018-08-17T21:47:27.164Z,18.40
2018-08-17T21:50:02.369Z,18.30
2018-08-17T21:52:32.409Z,18.20
2018-08-17T21:55:02.540Z,18.20
2018-08-17T21:57:32.733Z,18.10
2018-08-17T22:00:02.978Z,18.10
2018-08-17T22:02:33.189Z,18.00
2018-08-17T22:05:03.369Z,17.90
2018-08-17T22:07:33.525Z,17.70
2018-08-17T22:10:03.782Z,17.70
2018-08-17T22:12:34.545Z,17.60
2018-08-17T22:15:04.837Z,17.70
2018-08-17T22:17:37.761Z,17.80
2018-08-17T22:20:09.652Z,17.80
2018-08-17T22:22:39.848Z,17.80
2018-08-17T22:25:14.484Z,17.80
2018-08-17T22:27:44.683Z,17.90
2018-08-17T22:30:18.361Z,18.00
2018-08-17T22:32:48.514Z,18.10
2018-08-17T22:35:19.002Z,18.20
2018-08-17T22:37:49.168Z,18.20
2018-08-17T22:40:19.456Z,18.10
2018-08-17T22:42:50.636Z,18.10
2018-08-17T22:45:20.704Z,18.00
2018-08-17T22:47:51.106Z,17.80
2018-08-17T22:50:21.248Z,17.70
2018-08-17T22:52:51.385Z,17.70
2018-08-17T22:55:21.543Z,17.70
2018-08-17T22:57:57.740Z,17.70
2018-08-17T23:00:36.597Z,17.60
2018-08-17T23:03:06.773Z,17.50
2018-08-17T23:05:37.330Z,17.40
2018-08-17T23:08:07.553Z,17.40
2018-08-17T23:10:37.688Z,17.30
2018-08-17T23:13:16.765Z,17.20
2018-08-17T23:15:47.040Z,17.20
2018-08-17T23:18:17.466Z,17.20
2018-08-17T23:20:47.637Z,17.20
2018-08-17T23:23:17.752Z,17.30
2018-08-17T23:25:47.897Z,17.30
2018-08-17T23:28:17.950Z,17.20
2018-08-17T23:30:48.401Z,17.20
2018-08-17T23:33:18.648Z,17.10
2018-08-17T23:35:49.082Z,17.10
2018-08-17T23:38:19.230Z,17.00
2018-08-17T23:40:49.385Z,17.00
2018-08-17T23:43:19.496Z,17.00
2018-08-17T23:45:49.628Z,17.00
2018-08-17T23:48:19.766Z,16.90
2018-08-17T23:50:49.896Z,16.80
2018-08-17T23:53:20.048Z,16.70
2018-08-17T23:55:50.232Z,16.70
2018-08-17T23:58:20.332Z,16.60
